createdAt,value
2022-08-19T00:00:12.011Z,100.00
2022-08-19T00:03:00.099Z,100.00
2022-08-19T00:05:28.503Z,100.00
2022-08-19T00:07:56.503Z,100.00
2022-08-19T00:10:25.555Z,100.00
2022-08-19T00:12:53.806Z,100.00
2022-08-19T00:15:23.055Z,100.00
2022-08-19T00:17:52.114Z,100.00
2022-08-19T00:20:22.263Z,100.00
2022-08-19T00:22:51.163Z,100.00
2022-08-19T00:25:30.636Z,100.00
2022-08-19T00:28:00.126Z,100.00
2022-08-19T00:30:31.323Z,100.00
2022-08-19T00:33:00.303Z,100.00
2022-08-19T00:35:29.045Z,100.00
2022-08-19T00:37:58.271Z,100.00
2022-08-19T00:40:26.847Z,100.00
2022-08-19T00:42:54.995Z,100.00
2022-08-19T00:45:27.072Z,100.00
2022-08-19T00:47:55.141Z,100.00
2022-08-19T00:50:25.478Z,100.00
2022-08-19T00:52:54.391Z,100.00
2022-08-19T00:55:26.343Z,100.00
2022-08-19T00:57:57.408Z,100.00
2022-08-19T01:00:27.955Z,100.00
2022-08-19T01:02:56.058Z,100.00
2022-08-19T01:05:30.266Z,100.00
2022-08-19T01:08:01.762Z,100.00
2022-08-19T01:10:36.903Z,100.00
2022-08-19T01:13:06.059Z,100.00
2022-08-19T01:15:41.194Z,100.00
2022-08-19T01:18:13.283Z,100.00
2022-08-19T01:20:42.517Z,100.00
2022-08-19T01:23:10.731Z,100.00
2022-08-19T01:25:53.109Z,100.00
2022-08-19T01:28:34.224Z,100.00
2022-08-19T01:31:26.367Z,100.00
2022-08-19T01:34:00.814Z,100.00
2022-08-19T01:36:38.327Z,100.00
2022-08-19T01:39:10.599Z,100.00
2022-08-19T01:41:38.876Z,100.00
2022-08-19T01:44:17.433Z,100.00
2022-08-19T01:46:49.492Z,100.00
2022-08-19T01:49:20.286Z,100.00
2022-08-19T01:51:50.628Z,100.00
2022-08-19T01:54:22.895Z,100.00
2022-08-19T01:57:02.076Z,100.00
2022-08-19T01:59:32.148Z,100.00
2022-08-19T02:02:00.166Z,100.00
2022-08-19T02:04:28.280Z,100.00
2022-08-19T02:06:56.307Z,100.00
2022-08-19T02:09:24.395Z,100.00
2022-08-19T02:11:52.843Z,100.00
2022-08-19T02:14:20.842Z,100.00
2022-08-19T02:16:49.371Z,100.00
2022-08-19T02:19:18.046Z,100.00
2022-08-19T02:21:46.246Z,100.00
2022-08-19T02:24:14.847Z,100.00
2022-08-19T02:26:42.849Z,100.00
2022-08-19T02:29:11.922Z,100.00
2022-08-19T02:31:39.945Z,100.00
2022-08-19T02:34:07.973Z,100.00
2022-08-19T02:36:36.254Z,100.00
2022-08-19T02:39:11.429Z,100.00
2022-08-19T02:41:40.312Z,100.00
2022-08-19T02:44:29.421Z,100.00
2022-08-19T02:46:56.574Z,100.00
2022-08-19T02:49:24.674Z,100.00
2022-08-19T02:51:52.739Z,100.00
2022-08-19T02:54:20.839Z,100.00
2022-08-19T02:56:48.896Z,100.00
2022-08-19T02:59:16.889Z,100.00
2022-08-19T03:01:44.953Z,100.00
2022-08-19T03:04:17.219Z,100.00
2022-08-19T03:06:47.381Z,100.00
2022-08-19T03:09:16.505Z,100.00
2022-08-19T03:11:44.775Z,100.00
2022-08-19T03:14:14.109Z,100.00
2022-08-19T03:16:48.878Z,100.00
2022-08-19T03:19:19.559Z,100.00
2022-08-19T03:21:48.551Z,100.00
2022-08-19T03:24:18.370Z,100.00
2022-08-19T03:26:52.474Z,100.00
2022-08-19T03:29:30.841Z,100.00
2022-08-19T03:32:02.143Z,100.00
2022-08-19T03:34:35.387Z,100.00
2022-08-19T03:37:10.434Z,100.00
2022-08-19T03:39:39.098Z,100.00
2022-08-19T03:42:32.651Z,100.00
2022-08-19T03:44:55.468Z,100.00
2022-08-19T03:47:23.583Z,100.00
2022-08-19T03:49:51.641Z,100.00
2022-08-19T03:52:19.668Z,100.00
2022-08-19T03:54:47.688Z,100.00
2022-08-19T03:57:15.692Z,100.00
2022-08-19T03:59:44.584Z,100.00
2022-08-19T04:02:14.003Z,100.00
2022-08-19T04:04:44.913Z,100.00
2022-08-19T04:07:17.321Z,100.00
2022-08-19T04:09:45.656Z,100.00
2022-08-19T04:12:13.717Z,100.00
2022-08-19T04:14:42.288Z,100.00
2022-08-19T04:17:10.312Z,100.00
2022-08-19T04:19:40.705Z,100.00
2022-08-19T04:22:08.904Z,100.00
2022-08-19T04:24:37.014Z,100.00
2022-08-19T04:27:07.220Z,100.00
2022-08-19T04:29:35.482Z,100.00
2022-08-19T04:32:09.430Z,100.00
2022-08-19T04:35:01.244Z,100.00
2022-08-19T04:37:35.421Z,100.00
2022-08-19T04:40:27.875Z,100.00
2022-08-19T04:42:56.138Z,100.00
2022-08-19T04:45:27.619Z,100.00
2022-08-19T04:47:58.161Z,100.00
2022-08-19T04:50:45.937Z,100.00
2022-08-19T04:53:14.008Z,100.00
2022-08-19T04:55:43.517Z,100.00
2022-08-19T04:58:11.804Z,100.00
2022-08-19T05:00:41.237Z,100.00
2022-08-19T05:03:09.596Z,100.00
2022-08-19T05:05:44.613Z,100.00
2022-08-19T05:08:15.312Z,100.00
2022-08-19T05:10:43.849Z,100.00
2022-08-19T05:13:12.027Z,100.00
2022-08-19T05:15:40.098Z,100.00
2022-08-19T05:18:26.810Z,100.00
2022-08-19T05:21:13.260Z,100.00
2022-08-19T05:23:42.192Z,100.00
2022-08-19T05:26:12.075Z,100.00
2022-08-19T05:28:40.188Z,100.00
2022-08-19T05:31:08.678Z,100.00
2022-08-19T05:33:37.012Z,100.00
2022-08-19T05:36:09.947Z,100.00
2022-08-19T05:38:39.470Z,100.00
2022-08-19T05:41:12.263Z,100.00
2022-08-19T05:43:41.397Z,100.00
2022-08-19T05:46:17.029Z,100.00
2022-08-19T05:48:45.606Z,100.00
2022-08-19T05:51:14.305Z,100.00
2022-08-19T05:53:46.778Z,100.00
2022-08-19T05:56:19.535Z,100.00
2022-08-19T05:58:47.636Z,100.00
2022-08-19T06:01:18.388Z,100.00
2022-08-19T06:03:47.179Z,100.00
2022-08-19T06:06:17.384Z,100.00
2022-08-19T06:08:51.742Z,100.00
2022-08-19T06:11:26.558Z,100.00
2022-08-19T06:14:01.506Z,100.00
2022-08-19T06:16:31.353Z,100.00
2022-08-19T06:19:02.043Z,100.00
2022-08-19T06:21:31.444Z,100.00
2022-08-19T06:24:00.442Z,100.00
2022-08-19T06:26:30.516Z,100.00
2022-08-19T06:28:58.852Z,100.00
2022-08-19T06:31:29.468Z,100.00
2022-08-19T06:33:57.511Z,100.00
2022-08-19T06:36:34.841Z,100.00
2022-08-19T06:39:06.980Z,100.00
2022-08-19T06:41:48.806Z,100.00
2022-08-19T06:44:21.751Z,100.00
2022-08-19T06:46:53.547Z,100.00
2022-08-19T06:49:24.211Z,100.00
2022-08-19T06:51:52.669Z,100.00
2022-08-19T06:54:21.960Z,100.00
2022-08-19T06:56:51.689Z,100.00
2022-08-19T06:59:23.851Z,100.00
2022-08-19T07:01:55.332Z,100.00
2022-08-19T07:04:26.626Z,100.00
2022-08-19T07:07:00.967Z,100.00
2022-08-19T07:09:58.555Z,100.00
2022-08-19T07:12:36.129Z,100.00
2022-08-19T07:15:09.616Z,100.00
2022-08-19T07:17:41.918Z,100.00
2022-08-19T07:20:11.793Z,100.00
2022-08-19T07:22:41.365Z,100.00
2022-08-19T07:25:11.038Z,100.00
2022-08-19T07:27:46.343Z,100.00
2022-08-19T07:30:14.918Z,100.00
2022-08-19T07:32:43.546Z,100.00
2022-08-19T07:35:12.816Z,100.00
2022-08-19T07:37:45.254Z,100.00
2022-08-19T07:40:14.950Z,100.00
2022-08-19T07:42:45.275Z,100.00
2022-08-19T07:45:13.736Z,100.00
2022-08-19T07:47:49.242Z,100.00
2022-08-19T07:50:21.325Z,100.00
2022-08-19T07:52:50.908Z,100.00
2022-08-19T07:55:42.453Z,100.00
2022-08-19T07:58:16.077Z,100.00
2022-08-19T08:00:48.379Z,100.00
2022-08-19T08:03:19.604Z,100.00
2022-08-19T08:06:08.859Z,100.00
2022-08-19T08:08:48.154Z,100.00
2022-08-19T08:11:21.325Z,100.00
2022-08-19T08:14:00.868Z,100.00
2022-08-19T08:16:46.747Z,100.00
2022-08-19T08:19:20.639Z,100.00
2022-08-19T08:21:56.984Z,100.00
2022-08-19T08:24:28.614Z,100.00
2022-08-19T08:26:59.723Z,100.00
2022-08-19T08:29:34.574Z,100.00
2022-08-19T08:32:14.129Z,100.00
2022-08-19T08:34:43.779Z,100.00
2022-08-19T08:37:11.955Z,100.00
2022-08-19T08:39:43.274Z,100.00
2022-08-19T08:42:27.910Z,100.00
2022-08-19T08:44:59.559Z,100.00
2022-08-19T08:47:33.968Z,100.00
2022-08-19T08:50:22.406Z,100.00
2022-08-19T08:52:58.015Z,100.00
2022-08-19T08:55:36.929Z,100.00
2022-08-19T08:58:22.071Z,100.00
2022-08-19T09:00:51.068Z,100.00
2022-08-19T09:03:23.482Z,100.00
2022-08-19T09:06:44.701Z,100.00
2022-08-19T09:09:45.471Z,100.00
2022-08-19T09:12:26.891Z,100.00
2022-08-19T09:15:01.559Z,100.00
2022-08-19T09:17:39.697Z,100.00
2022-08-19T09:20:20.723Z,100.00
2022-08-19T09:22:50.392Z,100.00
2022-08-19T09:25:26.993Z,100.00
2022-08-19T09:28:02.277Z,100.00
2022-08-19T09:30:40.637Z,100.00
2022-08-19T09:33:10.445Z,100.00
2022-08-19T09:35:50.166Z,98.92
2022-08-19T09:38:22.650Z,99.01
2022-08-19T09:40:51.000Z,95.29
2022-08-19T09:43:32.566Z,93.41
2022-08-19T09:46:07.660Z,94.25
2022-08-19T09:48:42.142Z,90.17
2022-08-19T09:51:17.256Z,89.15
2022-08-19T09:53:46.779Z,86.76
2022-08-19T09:56:15.188Z,84.79
2022-08-19T09:58:43.837Z,81.81
2022-08-19T10:01:18.322Z,79.45
2022-08-19T10:03:53.746Z,82.57
2022-08-19T10:06:46.755Z,84.63
2022-08-19T10:09:18.415Z,80.18
2022-08-19T10:12:06.174Z,77.53
2022-08-19T10:14:36.633Z,76.78
2022-08-19T10:17:17.673Z,75.82
2022-08-19T10:19:55.187Z,72.31
2022-08-19T10:22:25.691Z,68.50
2022-08-19T10:24:56.910Z,62.93
2022-08-19T10:27:26.505Z,64.86
2022-08-19T10:29:54.971Z,66.75
2022-08-19T10:32:33.873Z,67.88
2022-08-19T10:35:09.137Z,66.05
2022-08-19T10:37:47.800Z,66.65
2022-08-19T10:40:29.556Z,67.01
2022-08-19T10:42:57.879Z,63.67
2022-08-19T10:45:29.929Z,60.65
2022-08-19T10:48:07.202Z,63.40
2022-08-19T10:50:58.590Z,57.52
2022-08-19T10:53:27.281Z,53.87
2022-08-19T10:56:17.599Z,54.15
2022-08-19T10:58:45.956Z,54.78
2022-08-19T11:01:17.508Z,55.59
2022-08-19T11:03:46.482Z,52.32
2022-08-19T11:06:15.096Z,49.02
2022-08-19T11:08:46.486Z,53.33
2022-08-19T11:11:15.819Z,52.48
2022-08-19T11:13:47.033Z,50.78
2022-08-19T11:16:18.636Z,48.80
2022-08-19T11:18:52.282Z,46.74
2022-08-19T11:21:26.921Z,46.38
2022-08-19T11:23:58.003Z,48.20
2022-08-19T11:26:26.860Z,48.89
2022-08-19T11:28:56.726Z,47.53
2022-08-19T11:31:32.300Z,47.30
2022-08-19T11:34:04.345Z,47.46
2022-08-19T11:36:36.232Z,45.50
2022-08-19T11:39:07.760Z,44.57
2022-08-19T11:41:36.485Z,42.74
2022-08-19T11:44:05.806Z,42.53
2022-08-19T11:46:35.904Z,40.70
2022-08-19T11:49:13.880Z,39.09
2022-08-19T11:51:46.984Z,40.21
2022-08-19T11:54:17.850Z,40.60
2022-08-19T11:56:48.538Z,40.42
2022-08-19T11:59:17.256Z,39.57
2022-08-19T12:01:45.601Z,39.38
2022-08-19T12:04:14.442Z,39.75
2022-08-19T12:06:42.815Z,37.37
2022-08-19T12:09:12.455Z,36.85
2022-08-19T12:11:42.732Z,36.29
2022-08-19T12:14:15.285Z,36.49
2022-08-19T12:16:49.235Z,36.57
2022-08-19T12:19:22.233Z,35.26
2022-08-19T12:21:52.024Z,34.47
2022-08-19T12:24:24.525Z,33.34
2022-08-19T12:26:55.034Z,34.93
2022-08-19T12:29:30.712Z,35.16
2022-08-19T12:32:05.775Z,34.78
2022-08-19T12:34:40.620Z,33.68
2022-08-19T12:37:09.149Z,33.94
2022-08-19T12:39:41.513Z,34.26
2022-08-19T12:42:11.867Z,33.38
2022-08-19T12:44:42.708Z,33.61
2022-08-19T12:47:14.464Z,32.75
2022-08-19T12:49:53.387Z,31.59
2022-08-19T12:52:28.352Z,31.81
2022-08-19T12:54:58.494Z,31.08
2022-08-19T12:57:32.338Z,31.61
2022-08-19T13:00:05.789Z,31.73
2022-08-19T13:02:38.961Z,30.25
2022-08-19T13:05:12.900Z,30.54
2022-08-19T13:07:42.056Z,30.46
2022-08-19T13:10:21.411Z,30.05
2022-08-19T13:12:52.427Z,29.65
2022-08-19T13:15:24.152Z,29.11
2022-08-19T13:17:54.925Z,29.62
2022-08-19T13:20:24.059Z,29.38
2022-08-19T13:22:52.763Z,29.85
2022-08-19T13:25:21.982Z,30.42
2022-08-19T13:27:51.873Z,29.05
2022-08-19T13:30:39.491Z,28.38
2022-08-19T13:33:11.962Z,28.54
2022-08-19T13:35:43.677Z,28.58
2022-08-19T13:38:12.578Z,28.19
2022-08-19T13:40:51.219Z,27.77
2022-08-19T13:43:33.979Z,27.39
2022-08-19T13:46:14.444Z,27.17
2022-08-19T13:48:45.898Z,27.17
2022-08-19T13:51:14.376Z,27.00
2022-08-19T13:53:48.134Z,27.15
2022-08-19T13:56:26.310Z,26.48
2022-08-19T13:58:54.819Z,26.82
2022-08-19T14:01:28.505Z,26.59
2022-08-19T14:03:56.725Z,27.00
2022-08-19T14:06:26.424Z,27.58
2022-08-19T14:08:54.949Z,27.00
2022-08-19T14:11:24.396Z,26.40
2022-08-19T14:13:52.727Z,26.70
2022-08-19T14:16:22.751Z,25.63
2022-08-19T14:18:53.372Z,25.30
2022-08-19T14:21:23.670Z,24.85
2022-08-19T14:23:52.913Z,24.77
2022-08-19T14:26:23.454Z,24.55
2022-08-19T14:28:53.861Z,24.51
2022-08-19T14:31:28.975Z,24.50
2022-08-19T14:33:59.491Z,24.69
2022-08-19T14:36:29.272Z,25.05
2022-08-19T14:38:58.898Z,25.83
2022-08-19T14:41:27.513Z,25.42
2022-08-19T14:43:57.285Z,25.22
2022-08-19T14:46:28.264Z,24.60
2022-08-19T14:48:59.980Z,24.69
2022-08-19T14:51:28.760Z,24.95
2022-08-19T14:53:57.227Z,24.07
2022-08-19T14:56:28.825Z,23.73
2022-08-19T14:59:00.442Z,23.96
2022-08-19T15:01:29.331Z,24.35
2022-08-19T15:03:57.699Z,24.12
2022-08-19T15:06:30.203Z,24.65
2022-08-19T15:09:04.334Z,24.62
2022-08-19T15:11:34.073Z,24.12
2022-08-19T15:14:03.336Z,23.86
2022-08-19T15:16:31.426Z,23.83
2022-08-19T15:19:01.035Z,23.88
2022-08-19T15:21:30.668Z,23.99
2022-08-19T15:23:59.776Z,23.81
2022-08-19T15:26:32.491Z,24.27
2022-08-19T15:29:02.380Z,24.75
2022-08-19T15:31:38.244Z,24.77
2022-08-19T15:34:08.238Z,24.01
2022-08-19T15:36:38.897Z,23.85
2022-08-19T15:39:07.527Z,24.59
2022-08-19T15:41:37.152Z,24.43
2022-08-19T15:44:12.358Z,24.44
2022-08-19T15:46:44.262Z,24.14
2022-08-19T15:49:15.706Z,24.05
2022-08-19T15:51:46.903Z,24.21
2022-08-19T15:54:21.554Z,24.17
2022-08-19T15:57:10.028Z,24.26
2022-08-19T15:59:58.041Z,24.34
2022-08-19T16:02:53.610Z,24.57
2022-08-19T16:05:44.590Z,25.08
2022-08-19T16:08:13.256Z,24.74
2022-08-19T16:10:43.093Z,25.03
2022-08-19T16:13:11.296Z,25.46
2022-08-19T16:15:42.191Z,25.77
2022-08-19T16:18:10.511Z,26.09
2022-08-19T16:20:38.915Z,25.81
2022-08-19T16:23:09.166Z,26.11
2022-08-19T16:25:39.492Z,26.72
2022-08-19T16:28:10.048Z,27.24
2022-08-19T16:30:41.032Z,27.46
2022-08-19T16:33:10.786Z,28.06
2022-08-19T16:35:39.128Z,28.63
2022-08-19T16:38:07.304Z,29.56
2022-08-19T16:40:37.942Z,30.24
2022-08-19T16:43:05.979Z,31.78
2022-08-19T16:45:34.120Z,32.94
2022-08-19T16:48:04.237Z,34.28
2022-08-19T16:50:48.638Z,36.69
2022-08-19T16:53:21.313Z,39.47
2022-08-19T16:55:51.108Z,41.26
2022-08-19T16:58:20.661Z,43.07
2022-08-19T17:01:03.291Z,45.14
2022-08-19T17:03:36.959Z,47.66
2022-08-19T17:06:18.930Z,49.51
2022-08-19T17:08:54.362Z,52.15
2022-08-19T17:11:24.556Z,54.10
2022-08-19T17:13:54.690Z,55.95
2022-08-19T17:16:25.812Z,57.63
2022-08-19T17:18:58.799Z,58.56
2022-08-19T17:21:32.348Z,59.94
2022-08-19T17:24:02.531Z,60.66
2022-08-19T17:26:31.454Z,63.59
2022-08-19T17:29:00.536Z,65.84
2022-08-19T17:31:30.819Z,66.42
2022-08-19T17:34:00.360Z,67.10
2022-08-19T17:36:31.316Z,68.49
2022-08-19T17:39:05.030Z,69.72
2022-08-19T17:41:34.444Z,71.55
2022-08-19T17:44:03.671Z,70.67
2022-08-19T17:46:32.750Z,72.99
2022-08-19T17:49:00.977Z,75.29
2022-08-19T17:51:35.127Z,73.98
2022-08-19T17:54:06.635Z,78.44
2022-08-19T17:56:34.778Z,79.07
2022-08-19T17:59:02.890Z,80.21
2022-08-19T18:01:52.521Z,80.78
2022-08-19T18:04:25.285Z,81.50
2022-08-19T18:06:55.615Z,83.34
2022-08-19T18:09:41.209Z,84.52
2022-08-19T18:12:13.566Z,83.63
2022-08-19T18:14:42.311Z,80.20
2022-08-19T18:17:13.347Z,84.07
2022-08-19T18:19:44.212Z,87.78
2022-08-19T18:22:30.180Z,87.60
2022-08-19T18:24:59.857Z,83.78
2022-08-19T18:27:29.399Z,83.04
2022-08-19T18:29:59.452Z,82.44
2022-08-19T18:32:34.308Z,85.10
2022-08-19T18:35:18.624Z,84.44
2022-08-19T18:37:46.871Z,83.33
2022-08-19T18:40:39.132Z,86.81
2022-08-19T18:43:27.390Z,97.46
2022-08-19T18:46:27.841Z,97.29
2022-08-19T18:49:05.227Z,99.04
2022-08-19T18:51:34.597Z,100.00
2022-08-19T18:54:03.280Z,100.00
2022-08-19T18:56:37.517Z,100.00
2022-08-19T18:59:09.774Z,100.00
2022-08-19T19:01:40.803Z,100.00
2022-08-19T19:04:13.915Z,100.00
2022-08-19T19:06:43.473Z,100.00
2022-08-19T19:09:15.557Z,100.00
2022-08-19T19:11:48.428Z,100.00
2022-08-19T19:14:45.546Z,100.00
2022-08-19T19:17:14.374Z,100.00
2022-08-19T19:19:44.077Z,100.00
2022-08-19T19:22:17.287Z,100.00
2022-08-19T19:24:45.545Z,100.00
2022-08-19T19:27:15.565Z,100.00
2022-08-19T19:29:47.401Z,100.00
2022-08-19T19:32:26.942Z,100.00
2022-08-19T19:34:55.447Z,100.00
2022-08-19T19:37:23.637Z,100.00
2022-08-19T19:39:52.698Z,100.00
2022-08-19T19:42:23.975Z,100.00
2022-08-19T19:44:56.247Z,100.00
2022-08-19T19:47:29.126Z,100.00
2022-08-19T19:50:13.650Z,100.00
2022-08-19T19:52:46.378Z,100.00
2022-08-19T19:55:18.607Z,100.00
2022-08-19T19:57:49.236Z,100.00
2022-08-19T20:00:19.193Z,100.00
2022-08-19T20:02:50.413Z,100.00
2022-08-19T20:05:23.598Z,100.00
2022-08-19T20:08:12.197Z,100.00
2022-08-19T20:10:43.065Z,100.00
2022-08-19T20:13:15.677Z,100.00
2022-08-19T20:15:44.230Z,100.00
2022-08-19T20:18:16.378Z,100.00
2022-08-19T20:20:47.126Z,100.00
2022-08-19T20:23:15.325Z,100.00
2022-08-19T20:25:43.643Z,100.00
2022-08-19T20:28:13.179Z,100.00
2022-08-19T20:30:44.939Z,100.00
2022-08-19T20:33:14.954Z,100.00
2022-08-19T20:35:43.686Z,100.00
2022-08-19T20:38:12.524Z,100.00
2022-08-19T20:40:41.441Z,100.00
2022-08-19T20:43:11.952Z,100.00
2022-08-19T20:45:40.847Z,100.00
2022-08-19T20:48:10.616Z,100.00
2022-08-19T20:50:39.257Z,100.00
2022-08-19T20:53:16.255Z,100.00
2022-08-19T20:55:46.313Z,100.00
2022-08-19T20:58:14.845Z,100.00
2022-08-19T21:00:46.264Z,100.00
2022-08-19T21:03:21.331Z,100.00
2022-08-19T21:05:49.600Z,100.00
2022-08-19T21:08:21.010Z,100.00
2022-08-19T21:10:51.056Z,100.00
2022-08-19T21:13:20.597Z,100.00
2022-08-19T21:15:50.674Z,100.00
2022-08-19T21:18:20.991Z,100.00
2022-08-19T21:20:50.491Z,100.00
2022-08-19T21:23:28.581Z,100.00
2022-08-19T21:25:59.723Z,100.00
2022-08-19T21:28:29.864Z,100.00
2022-08-19T21:31:06.863Z,100.00
2022-08-19T21:33:35.059Z,100.00
2022-08-19T21:36:04.485Z,100.00
2022-08-19T21:38:33.135Z,100.00
2022-08-19T21:41:05.734Z,100.00
2022-08-19T21:43:37.768Z,100.00
2022-08-19T21:46:06.462Z,100.00
2022-08-19T21:48:34.849Z,100.00
2022-08-19T21:51:03.221Z,100.00
2022-08-19T21:53:34.525Z,100.00
2022-08-19T21:56:06.429Z,100.00
2022-08-19T21:58:39.030Z,100.00
2022-08-19T22:01:08.127Z,100.00
2022-08-19T22:03:38.827Z,100.00
2022-08-19T22:06:08.531Z,100.00
2022-08-19T22:08:36.916Z,100.00
2022-08-19T22:11:05.227Z,100.00
2022-08-19T22:13:40.507Z,100.00
2022-08-19T22:16:12.636Z,100.00
2022-08-19T22:18:40.852Z,100.00
2022-08-19T22:21:11.886Z,100.00
2022-08-19T22:23:42.496Z,100.00
2022-08-19T22:26:12.211Z,100.00
2022-08-19T22:28:44.276Z,100.00
2022-08-19T22:31:12.934Z,100.00
2022-08-19T22:33:41.684Z,100.00
2022-08-19T22:36:09.784Z,100.00
2022-08-19T22:38:38.513Z,100.00
2022-08-19T22:41:08.044Z,100.00
2022-08-19T22:43:37.699Z,100.00
2022-08-19T22:46:15.047Z,100.00
2022-08-19T22:48:47.786Z,100.00
2022-08-19T22:51:38.281Z,100.00
2022-08-19T22:54:06.322Z,100.00
2022-08-19T22:56:35.762Z,100.00
2022-08-19T22:59:04.234Z,100.00
2022-08-19T23:01:32.334Z,100.00
2022-08-19T23:04:03.728Z,100.00
2022-08-19T23:06:35.045Z,100.00
2022-08-19T23:09:07.280Z,100.00
2022-08-19T23:11:41.895Z,100.00
2022-08-19T23:14:11.462Z,100.00
2022-08-19T23:16:41.709Z,100.00
2022-08-19T23:19:10.850Z,100.00
2022-08-19T23:21:43.744Z,100.00
2022-08-19T23:24:12.445Z,100.00
2022-08-19T23:27:01.752Z,100.00
2022-08-19T23:29:48.914Z,100.00
2022-08-19T23:32:19.804Z,100.00
2022-08-19T23:34:48.342Z,100.00
2022-08-19T23:37:16.430Z,100.00
2022-08-19T23:39:45.430Z,100.00
2022-08-19T23:42:15.079Z,100.00
2022-08-19T23:44:51.285Z,100.00
2022-08-19T23:47:23.630Z,100.00
2022-08-19T23:49:51.973Z,100.00
2022-08-19T23:52:20.195Z,100.00
2022-08-19T23:54:48.243Z,100.00
2022-08-19T23:57:16.976Z,100.00
2022-08-19T23:59:45.753Z,100.00
